createdAt,value
2022-10-05T00:01:25.456Z,99322.81
2022-10-05T00:03:59.205Z,99337.56
2022-10-05T00:06:29.940Z,99329.69
2022-10-05T00:08:56.657Z,99343.09
2022-10-05T00:11:23.291Z,99335.25
2022-10-05T00:13:49.871Z,99344.78
2022-10-05T00:16:19.743Z,99352.69
2022-10-05T00:18:49.962Z,99355.66
2022-10-05T00:21:25.383Z,99359.78
2022-10-05T00:23:54.097Z,99367.66
2022-10-05T00:26:26.808Z,99362.59
2022-10-05T00:28:54.821Z,99362.94
2022-10-05T00:31:24.514Z,99353.41
2022-10-05T00:33:51.894Z,99355.47
2022-10-05T00:36:19.020Z,99367.47
2022-10-05T00:38:45.692Z,99362.50
2022-10-05T00:41:20.854Z,99353.34
2022-10-05T00:44:12.336Z,99349.31
2022-10-05T00:46:47.704Z,99364.28
2022-10-05T00:49:33.068Z,99368.13
2022-10-05T00:52:28.328Z,99367.56
2022-10-05T00:55:13.340Z,99357.09
2022-10-05T00:57:51.915Z,99354.44
2022-10-05T01:00:24.170Z,99352.84
2022-10-05T01:02:54.158Z,99354.81
2022-10-05T01:05:32.522Z,99359.50
2022-10-05T01:08:11.150Z,99347.19
2022-10-05T01:11:29.984Z,99344.94
2022-10-05T01:14:35.174Z,99338.22
2022-10-05T01:17:20.474Z,99345.81
2022-10-05T01:20:02.016Z,99341.59
2022-10-05T01:22:57.414Z,99337.34
2022-10-05T01:25:30.222Z,99336.19
2022-10-05T01:28:08.592Z,99340.00
2022-10-05T01:30:45.485Z,99338.69
2022-10-05T01:33:21.353Z,99339.28
2022-10-05T01:36:05.267Z,99344.84
2022-10-05T01:38:53.294Z,99338.09
2022-10-05T01:41:37.432Z,99342.41
2022-10-05T01:44:11.258Z,99334.47
2022-10-05T01:47:00.497Z,99330.38
2022-10-05T01:49:37.878Z,99324.59
2022-10-05T01:52:51.016Z,99334.94
2022-10-05T01:55:38.592Z,99334.22
2022-10-05T01:58:17.357Z,99328.91
2022-10-05T02:00:59.910Z,99330.84
2022-10-05T02:03:37.150Z,99322.13
2022-10-05T02:06:13.404Z,99317.06
2022-10-05T02:08:46.482Z,99312.22
2022-10-05T02:11:17.081Z,99315.03
2022-10-05T02:13:50.833Z,99303.31
2022-10-05T02:16:25.515Z,99291.09
2022-10-05T02:19:03.928Z,99293.75
2022-10-05T02:21:33.664Z,99285.03
2022-10-05T02:24:05.188Z,99277.84
2022-10-05T02:26:33.520Z,99280.00
2022-10-05T02:29:04.236Z,99285.53
2022-10-05T02:31:46.032Z,99275.19
2022-10-05T02:34:28.368Z,99269.63
2022-10-05T02:37:13.708Z,99276.59
2022-10-05T02:40:05.257Z,99263.34
2022-10-05T02:43:00.024Z,99270.13
2022-10-05T02:45:45.095Z,99273.00
2022-10-05T02:48:29.060Z,99279.53
2022-10-05T02:51:26.176Z,99292.78
2022-10-05T02:54:21.089Z,99293.97
2022-10-05T02:56:53.542Z,99296.75
2022-10-05T02:59:38.739Z,99293.28
2022-10-05T03:02:16.869Z,99303.13
2022-10-05T03:04:52.316Z,99307.47
2022-10-05T03:07:27.740Z,99309.28
2022-10-05T03:10:02.694Z,99302.19
2022-10-05T03:12:48.861Z,99297.94
2022-10-05T03:15:36.967Z,99306.00
2022-10-05T03:18:11.348Z,99307.31
2022-10-05T03:20:44.190Z,99302.84
2022-10-05T03:23:35.173Z,99299.72
2022-10-05T03:26:18.114Z,99298.97
2022-10-05T03:28:58.857Z,99302.84
2022-10-05T03:31:51.635Z,99301.88
2022-10-05T03:34:36.692Z,99301.50
2022-10-05T03:37:03.211Z,99299.22
2022-10-05T03:39:51.507Z,99296.59
2022-10-05T03:42:28.372Z,99299.22
2022-10-05T03:45:05.673Z,99297.53
2022-10-05T03:48:01.275Z,99296.09
2022-10-05T03:50:57.143Z,99290.53
2022-10-05T03:53:29.984Z,99277.19
2022-10-05T03:56:03.778Z,99272.94
2022-10-05T03:58:37.659Z,99275.59
2022-10-05T04:01:10.572Z,99275.69
2022-10-05T04:03:46.192Z,99271.63
2022-10-05T04:06:22.498Z,99265.47
2022-10-05T04:08:49.017Z,99253.19
2022-10-05T04:11:26.501Z,99242.59
2022-10-05T04:14:01.266Z,99230.31
2022-10-05T04:16:33.612Z,99226.94
2022-10-05T04:19:09.768Z,99230.06
2022-10-05T04:22:17.184Z,99233.69
2022-10-05T04:24:52.867Z,99249.19
2022-10-05T04:27:23.740Z,99251.28
2022-10-05T04:29:53.350Z,99251.28
2022-10-05T04:32:29.423Z,99247.88
2022-10-05T04:35:14.345Z,99238.38
2022-10-05T04:38:17.302Z,99228.00
2022-10-05T04:41:08.877Z,99231.03
2022-10-05T04:43:44.721Z,99228.50
2022-10-05T04:46:51.112Z,99238.81
2022-10-05T04:49:20.990Z,99235.38
2022-10-05T04:52:12.257Z,99237.16
2022-10-05T04:54:41.466Z,99232.72
2022-10-05T04:57:15.368Z,99227.41
2022-10-05T05:00:09.980Z,99231.03
2022-10-05T05:02:59.502Z,99227.91
2022-10-05T05:05:31.784Z,99232.34
2022-10-05T05:08:25.944Z,99228.00
2022-10-05T05:11:19.987Z,99231.72
2022-10-05T05:14:03.717Z,99229.69
2022-10-05T05:16:44.442Z,99227.03
2022-10-05T05:19:14.245Z,99235.31
2022-10-05T05:21:59.520Z,99242.19
2022-10-05T05:24:35.613Z,99247.50
2022-10-05T05:27:26.277Z,99249.56
2022-10-05T05:30:17.486Z,99244.25
2022-10-05T05:32:56.209Z,99242.78
2022-10-05T05:35:41.002Z,99234.84
2022-10-05T05:38:35.283Z,99233.66
2022-10-05T05:41:13.029Z,99237.97
2022-10-05T05:44:01.155Z,99228.38
2022-10-05T05:47:01.896Z,99234.84
2022-10-05T05:49:27.876Z,99228.78
2022-10-05T05:52:18.432Z,99239.28
2022-10-05T05:55:13.443Z,99229.44
2022-10-05T05:58:09.550Z,99235.31
2022-10-05T06:00:47.263Z,99236.06
2022-10-05T06:03:24.784Z,99241.13
2022-10-05T06:05:57.119Z,99236.31
2022-10-05T06:08:23.680Z,99248.81
2022-10-05T06:10:56.586Z,99244.13
2022-10-05T06:13:35.204Z,99244.28
2022-10-05T06:16:10.270Z,99251.28
2022-10-05T06:18:41.337Z,99243.22
2022-10-05T06:21:23.438Z,99251.00
2022-10-05T06:24:21.119Z,99249.94
2022-10-05T06:27:02.842Z,99250.31
2022-10-05T06:29:53.493Z,99253.81
2022-10-05T06:32:32.182Z,99255.41
2022-10-05T06:35:22.712Z,99250.94
2022-10-05T06:37:58.027Z,99252.50
2022-10-05T06:40:39.237Z,99256.38
2022-10-05T06:43:39.841Z,99259.50
2022-10-05T06:46:26.209Z,99254.44
2022-10-05T06:49:18.028Z,99256.03
2022-10-05T06:52:10.854Z,99250.47
2022-10-05T06:54:43.406Z,99260.34
2022-10-05T06:57:30.142Z,99257.75
2022-10-05T07:00:16.207Z,99256.06
2022-10-05T07:03:01.577Z,99257.72
2022-10-05T07:05:39.623Z,99253.94
2022-10-05T07:08:06.131Z,99260.75
2022-10-05T07:10:45.258Z,99257.78
2022-10-05T07:13:41.325Z,99256.84
2022-10-05T07:16:13.799Z,99261.97
2022-10-05T07:18:59.370Z,99274.69
2022-10-05T07:21:41.958Z,99278.97
2022-10-05T07:24:31.698Z,99276.69
2022-10-05T07:27:07.317Z,99277.16
2022-10-05T07:29:59.131Z,99269.19
2022-10-05T07:32:36.823Z,99285.44
2022-10-05T07:35:47.021Z,99277.47
2022-10-05T07:38:24.113Z,99271.09
2022-10-05T07:41:06.725Z,99274.41
2022-10-05T07:44:20.949Z,99276.31
2022-10-05T07:46:58.659Z,99281.97
2022-10-05T07:49:51.883Z,99288.25
2022-10-05T07:52:38.132Z,99291.66
2022-10-05T07:55:21.866Z,99292.88
2022-10-05T07:57:54.066Z,99296.03
2022-10-05T08:00:43.202Z,99293.09
2022-10-05T08:03:20.265Z,99291.22
2022-10-05T08:05:47.590Z,99294.34
2022-10-05T08:08:38.291Z,99289.78
2022-10-05T08:11:31.167Z,99285.03
2022-10-05T08:14:09.008Z,99285.03
2022-10-05T08:16:39.565Z,99286.41
2022-10-05T08:19:15.311Z,99278.00
2022-10-05T08:21:48.118Z,99284.53
2022-10-05T08:24:29.719Z,99277.38
2022-10-05T08:27:02.233Z,99283.56
2022-10-05T08:29:50.696Z,99278.22
2022-10-05T08:32:25.717Z,99275.69
2022-10-05T08:35:01.589Z,99284.38
2022-10-05T08:37:34.129Z,99284.69
2022-10-05T08:40:18.896Z,99285.88
2022-10-05T08:43:13.108Z,99294.25
2022-10-05T08:45:54.805Z,99304.19
2022-10-05T08:48:46.296Z,99299.91
2022-10-05T08:51:33.067Z,99302.91
2022-10-05T08:54:18.294Z,99304.28
2022-10-05T08:57:08.113Z,99298.56
2022-10-05T09:00:11.004Z,99290.19
2022-10-05T09:03:11.691Z,99303.19
2022-10-05T09:06:14.480Z,99312.34
2022-10-05T09:09:19.872Z,99313.88
2022-10-05T09:12:16.432Z,99299.22
2022-10-05T09:15:24.429Z,99299.63
2022-10-05T09:18:40.154Z,99305.34
2022-10-05T09:21:21.901Z,99295.84
2022-10-05T09:24:15.568Z,99300.78
2022-10-05T09:27:14.961Z,99292.78
2022-10-05T09:29:41.408Z,99299.81
2022-10-05T09:32:29.715Z,99299.91
2022-10-05T09:35:08.357Z,99301.03
2022-10-05T09:37:35.084Z,99296.88
2022-10-05T09:40:41.715Z,99300.94
2022-10-05T09:43:17.502Z,99291.44
2022-10-05T09:45:59.336Z,99290.78
2022-10-05T09:48:26.053Z,99287.56
2022-10-05T09:51:09.100Z,99288.53
2022-10-05T09:54:07.386Z,99287.56
2022-10-05T09:56:47.253Z,99280.25
2022-10-05T09:59:19.726Z,99285.75
2022-10-05T10:01:46.656Z,99282.16
2022-10-05T10:04:25.684Z,99278.97
2022-10-05T10:07:03.658Z,99273.47
2022-10-05T10:09:52.078Z,99280.22
2022-10-05T10:12:32.792Z,99273.47
2022-10-05T10:15:38.462Z,99265.34
2022-10-05T10:18:35.094Z,99269.25
2022-10-05T10:21:39.594Z,99246.91
2022-10-05T10:24:21.611Z,99239.13
2022-10-05T10:27:07.047Z,99244.47
2022-10-05T10:29:57.984Z,99244.47
2022-10-05T10:32:45.994Z,99244.31
2022-10-05T10:35:58.792Z,99245.56
2022-10-05T10:38:41.599Z,99240.88
2022-10-05T10:41:10.798Z,99246.44
2022-10-05T10:43:58.973Z,99250.75
2022-10-05T10:46:48.450Z,99242.59
2022-10-05T10:49:52.289Z,99239.72
2022-10-05T10:52:47.513Z,99236.84
2022-10-05T10:55:38.672Z,99238.28
2022-10-05T10:58:50.147Z,99244.50
2022-10-05T11:01:16.759Z,99236.03
2022-10-05T11:03:54.895Z,99233.69
2022-10-05T11:06:33.568Z,99244.16
2022-10-05T11:09:26.910Z,99239.28
2022-10-05T11:12:34.543Z,99243.75
2022-10-05T11:15:44.731Z,99232.28
2022-10-05T11:18:23.695Z,99229.66
2022-10-05T11:20:59.446Z,99231.53
2022-10-05T11:23:45.067Z,99206.97
2022-10-05T11:26:23.241Z,99204.72
2022-10-05T11:29:20.736Z,99204.00
2022-10-05T11:32:14.346Z,99187.38
2022-10-05T11:35:05.639Z,99191.06
2022-10-05T11:38:06.221Z,99199.03
2022-10-05T11:41:10.045Z,99189.72
2022-10-05T11:44:10.114Z,99180.81
2022-10-05T11:46:39.728Z,99180.25
2022-10-05T11:49:32.790Z,99178.75
2022-10-05T11:52:13.096Z,99172.63
2022-10-05T11:55:12.046Z,99174.28
2022-10-05T11:57:53.909Z,99163.94
2022-10-05T12:00:43.469Z,99164.78
2022-10-05T12:03:27.093Z,99160.47
2022-10-05T12:06:27.328Z,99149.03
2022-10-05T12:09:08.018Z,99141.66
2022-10-05T12:12:04.078Z,99140.66
2022-10-05T12:14:33.597Z,99135.72
2022-10-05T12:17:31.033Z,99134.59
2022-10-05T12:20:21.901Z,99137.72
2022-10-05T12:22:54.882Z,99127.59
2022-10-05T12:25:31.769Z,99121.69
2022-10-05T12:28:05.028Z,99116.94
2022-10-05T12:31:09.288Z,99118.09
2022-10-05T12:33:51.179Z,99110.19
2022-10-05T12:36:35.959Z,99105.00
2022-10-05T12:39:22.229Z,99104.06
2022-10-05T12:44:42.706Z,99103.72
2022-10-05T12:47:09.236Z,99101.38
2022-10-05T12:50:08.098Z,99095.00
2022-10-05T12:53:13.443Z,99097.38
2022-10-05T12:56:04.438Z,99086.09
2022-10-05T12:58:56.449Z,99085.13
2022-10-05T13:01:41.566Z,99085.06
2022-10-05T13:04:19.167Z,99088.78
2022-10-05T13:07:07.502Z,99086.25
2022-10-05T13:09:59.892Z,99088.19
2022-10-05T13:12:42.606Z,99094.72
2022-10-05T13:15:29.674Z,99087.09
2022-10-05T13:18:08.365Z,99077.84
2022-10-05T13:20:35.336Z,99090.81
2022-10-05T13:23:12.864Z,99085.16
2022-10-05T13:26:07.797Z,99076.00
2022-10-05T13:28:41.630Z,99066.63
2022-10-05T13:31:26.727Z,99063.69
2022-10-05T13:34:19.549Z,99060.59
2022-10-05T13:37:04.062Z,99066.91
2022-10-05T13:39:56.861Z,99061.78
2022-10-05T13:42:32.631Z,99059.34
2022-10-05T13:45:32.425Z,99067.25
2022-10-05T13:48:11.075Z,99063.31
2022-10-05T13:51:01.874Z,99062.84
2022-10-05T13:53:37.115Z,99060.13
2022-10-05T13:56:09.371Z,99062.91
2022-10-05T13:58:51.999Z,99062.16
2022-10-05T14:01:26.605Z,99055.00
2022-10-05T14:04:22.239Z,99047.28
2022-10-05T14:06:49.260Z,99059.66
2022-10-05T14:09:25.490Z,99051.75
2022-10-05T14:12:14.363Z,99053.28
2022-10-05T14:14:53.868Z,99049.75
2022-10-05T14:17:40.400Z,99054.41
2022-10-05T14:20:25.183Z,99044.84
2022-10-05T14:22:58.473Z,99041.72
2022-10-05T14:25:25.401Z,99044.78
2022-10-05T14:28:11.844Z,99034.44
2022-10-05T14:30:39.922Z,99040.41
2022-10-05T14:33:14.141Z,99025.66
2022-10-05T14:35:50.833Z,99024.16
2022-10-05T14:38:22.583Z,99015.03
2022-10-05T14:41:06.536Z,99016.19
2022-10-05T14:43:34.300Z,99018.31
2022-10-05T14:46:23.287Z,99018.69
2022-10-05T14:49:23.657Z,99020.50
2022-10-05T14:51:51.620Z,99015.09
2022-10-05T14:54:36.585Z,99018.25
2022-10-05T14:57:32.153Z,99019.59
2022-10-05T15:00:12.416Z,99012.56
2022-10-05T15:03:00.935Z,99016.59
2022-10-05T15:05:38.575Z,99007.53
2022-10-05T15:08:12.897Z,99021.84
2022-10-05T15:10:51.148Z,99006.94
2022-10-05T15:13:21.333Z,99014.81
2022-10-05T15:16:03.345Z,99007.28
2022-10-05T15:18:53.069Z,99010.13
2022-10-05T15:21:42.343Z,99005.25
2022-10-05T15:24:20.190Z,99000.44
2022-10-05T15:26:56.122Z,99002.25
2022-10-05T15:29:47.345Z,98997.84
2022-10-05T15:32:42.778Z,98995.03
2022-10-05T15:36:00.549Z,98990.66
2022-10-05T15:38:33.326Z,98995.72
2022-10-05T15:41:15.597Z,98989.81
2022-10-05T15:44:19.099Z,98995.28
2022-10-05T15:47:02.990Z,98982.78
2022-10-05T15:49:43.384Z,98987.56
2022-10-05T15:52:12.991Z,98979.31
2022-10-05T15:55:16.958Z,98980.41
2022-10-05T15:57:49.258Z,98980.69
2022-10-05T16:00:23.039Z,98973.81
2022-10-05T16:02:59.251Z,98972.78
2022-10-05T16:05:56.762Z,98962.50
2022-10-05T16:09:00.761Z,98969.44
2022-10-05T16:11:39.215Z,98969.81
2022-10-05T16:14:32.315Z,98975.66
2022-10-05T16:17:07.921Z,98975.41
2022-10-05T16:19:49.410Z,98979.38
2022-10-05T16:22:27.909Z,98982.28
2022-10-05T16:25:34.603Z,98983.66
2022-10-05T16:28:11.686Z,98990.56
2022-10-05T16:30:58.854Z,98974.34
2022-10-05T16:33:33.937Z,98976.34
2022-10-05T16:36:20.911Z,98984.47
2022-10-05T16:39:33.297Z,98983.53
2022-10-05T16:42:14.155Z,98981.22
2022-10-05T16:45:18.346Z,98984.91
2022-10-05T16:48:08.347Z,98989.44
2022-10-05T16:51:01.450Z,98981.94
2022-10-05T16:53:37.142Z,98983.13
2022-10-05T16:56:11.166Z,98985.63
2022-10-05T16:58:40.734Z,98987.53
2022-10-05T17:01:29.616Z,98987.91
2022-10-05T17:04:14.618Z,98988.41
2022-10-05T17:06:59.375Z,99000.00
2022-10-05T17:09:25.871Z,99001.50
2022-10-05T17:12:04.341Z,99009.88
2022-10-05T17:14:48.861Z,99019.28
2022-10-05T17:17:17.274Z,99016.59
2022-10-05T17:20:01.325Z,99019.94
2022-10-05T17:22:30.846Z,99027.81
2022-10-05T17:25:03.302Z,99029.97
2022-10-05T17:27:51.007Z,99029.66
2022-10-05T17:30:26.888Z,99030.66
2022-10-05T17:32:59.834Z,99036.53
2022-10-05T17:35:52.161Z,99038.53
2022-10-05T17:38:23.230Z,99037.53
2022-10-05T17:41:14.771Z,99044.72
2022-10-05T17:43:42.548Z,99055.44
2022-10-05T17:46:10.716Z,99067.13
2022-10-05T17:48:43.242Z,99056.63
2022-10-05T17:51:39.594Z,99063.75
2022-10-05T17:55:03.352Z,99067.41
2022-10-05T17:57:31.017Z,99073.81
2022-10-05T18:00:01.919Z,99075.44
2022-10-05T18:02:36.888Z,99081.47
2022-10-05T18:05:06.722Z,99074.78
2022-10-05T18:07:34.674Z,99078.97
2022-10-05T18:10:11.679Z,99086.47
2022-10-05T18:13:01.305Z,99085.31
2022-10-05T18:15:27.893Z,99083.78
2022-10-05T18:18:20.025Z,99085.13
2022-10-05T18:21:09.206Z,99090.81
2022-10-05T18:23:37.115Z,99090.47
2022-10-05T18:26:20.512Z,99093.28
2022-10-05T18:29:35.954Z,99092.97
2022-10-05T18:32:12.585Z,99092.78
2022-10-05T18:34:53.487Z,99099.47
2022-10-05T18:37:57.254Z,99099.81
2022-10-05T18:40:38.477Z,99103.16
2022-10-05T18:43:43.968Z,99105.28
2022-10-05T18:46:35.298Z,99112.19
2022-10-05T18:49:10.575Z,99104.00
2022-10-05T18:52:04.115Z,99111.50
2022-10-05T18:54:55.896Z,99112.47
2022-10-05T18:57:31.777Z,99108.75
2022-10-05T19:00:07.693Z,99115.63
2022-10-05T19:02:38.627Z,99109.44
2022-10-05T19:05:47.041Z,99112.63
2022-10-05T19:08:15.249Z,99115.75
2022-10-05T19:10:41.827Z,99115.69
2022-10-05T19:13:17.256Z,99114.50
2022-10-05T19:15:55.916Z,99117.31
2022-10-05T19:18:22.483Z,99114.28
2022-10-05T19:21:08.713Z,99120.00
2022-10-05T19:23:41.994Z,99113.34
2022-10-05T19:26:26.883Z,99126.03
2022-10-05T19:29:07.930Z,99122.44
2022-10-05T19:31:49.308Z,99136.50
2022-10-05T19:34:22.228Z,99134.72
2022-10-05T19:37:09.179Z,99141.22
2022-10-05T19:39:54.366Z,99145.94
2022-10-05T19:42:57.805Z,99144.63
2022-10-05T19:45:26.683Z,99143.13
2022-10-05T19:48:02.137Z,99146.97
2022-10-05T19:50:34.577Z,99154.31
2022-10-05T19:53:17.162Z,99145.44
2022-10-05T19:55:47.153Z,99150.63
2022-10-05T19:58:21.354Z,99151.31
2022-10-05T20:00:55.073Z,99153.84
2022-10-05T20:03:27.662Z,99154.72
2022-10-05T20:06:03.018Z,99165.63
2022-10-05T20:08:50.180Z,99160.47
2022-10-05T20:11:18.108Z,99163.16
2022-10-05T20:13:53.621Z,99163.81
2022-10-05T20:16:46.869Z,99173.66
2022-10-05T20:19:50.149Z,99179.03
2022-10-05T20:22:39.595Z,99174.50
2022-10-05T20:25:30.766Z,99188.25
2022-10-05T20:27:58.033Z,99180.25
2022-10-05T20:30:29.162Z,99198.00
2022-10-05T20:33:00.743Z,99196.31
2022-10-05T20:35:30.813Z,99202.31
2022-10-05T20:38:00.210Z,99210.34
2022-10-05T20:40:29.122Z,99218.56
2022-10-05T20:42:56.767Z,99218.38
2022-10-05T20:45:23.611Z,99221.16
2022-10-05T20:47:50.782Z,99219.81
2022-10-05T20:50:17.556Z,99215.81
2022-10-05T20:52:44.168Z,99224.84
2022-10-05T20:55:11.427Z,99235.22
2022-10-05T20:57:42.142Z,99232.22
2022-10-05T21:00:13.291Z,99235.06
2022-10-05T21:02:40.023Z,99238.44
2022-10-05T21:05:07.780Z,99240.56
2022-10-05T21:07:34.857Z,99246.97
2022-10-05T21:10:03.401Z,99249.09
2022-10-05T21:12:30.262Z,99241.91
2022-10-05T21:14:56.902Z,99260.81
2022-10-05T21:17:23.539Z,99251.97
2022-10-05T21:19:50.324Z,99259.03
2022-10-05T21:22:16.919Z,99258.97
2022-10-05T21:24:43.564Z,99258.31
2022-10-05T21:27:10.320Z,99265.78
2022-10-05T21:29:37.198Z,99262.44
2022-10-05T21:32:08.742Z,99279.66
2022-10-05T21:34:35.643Z,99282.00
2022-10-05T21:37:02.298Z,99280.31
2022-10-05T21:39:28.913Z,99288.69
2022-10-05T21:41:56.064Z,99279.97
2022-10-05T21:44:22.691Z,99291.03
2022-10-05T21:46:49.660Z,99298.06
2022-10-05T21:49:19.489Z,99292.84
2022-10-05T21:51:47.295Z,99294.41
2022-10-05T21:54:21.181Z,99297.38
2022-10-05T21:56:51.624Z,99300.75
2022-10-05T21:59:21.807Z,99302.44
2022-10-05T22:01:48.344Z,99299.25
2022-10-05T22:04:15.174Z,99301.09
2022-10-05T22:06:42.069Z,99299.41
2022-10-05T22:09:08.887Z,99298.91
2022-10-05T22:11:35.584Z,99295.38
2022-10-05T22:14:02.744Z,99293.66
2022-10-05T22:16:32.794Z,99284.94
2022-10-05T22:19:03.758Z,99293.34
2022-10-05T22:21:30.394Z,99297.03
2022-10-05T22:23:57.463Z,99299.34
2022-10-05T22:26:24.763Z,99304.00
2022-10-05T22:28:55.632Z,99310.97
2022-10-05T22:31:22.469Z,99299.44
2022-10-05T22:33:49.138Z,99314.13
2022-10-05T22:36:16.373Z,99309.94
2022-10-05T22:38:43.058Z,99306.91
2022-10-05T22:41:10.967Z,99295.50
2022-10-05T22:43:38.134Z,99310.69
2022-10-05T22:46:12.249Z,99311.81
2022-10-05T22:48:40.172Z,99313.50
2022-10-05T22:51:07.723Z,99319.16
2022-10-05T22:53:35.120Z,99328.50
2022-10-05T22:56:09.203Z,99322.09
2022-10-05T22:58:38.332Z,99325.75
2022-10-05T23:01:07.504Z,99341.28
2022-10-05T23:03:34.639Z,99334.72
2022-10-05T23:06:21.574Z,99349.56
2022-10-05T23:08:48.277Z,99341.81
2022-10-05T23:11:18.440Z,99324.09
2022-10-05T23:13:45.137Z,99339.75
2022-10-05T23:16:14.226Z,99329.06
2022-10-05T23:18:42.058Z,99329.81
2022-10-05T23:21:10.253Z,99332.50
2022-10-05T23:23:38.331Z,99346.88
2022-10-05T23:26:06.424Z,99361.81
2022-10-05T23:28:33.762Z,99357.75
2022-10-05T23:31:05.435Z,99363.03
2022-10-05T23:33:32.623Z,99373.72
2022-10-05T23:36:01.194Z,99374.56
2022-10-05T23:38:29.075Z,99377.38
2022-10-05T23:40:58.653Z,99391.97
2022-10-05T23:43:26.417Z,99389.75
2022-10-05T23:45:53.489Z,99385.69
2022-10-05T23:48:20.272Z,99396.47
2022-10-05T23:50:47.705Z,99394.78
2022-10-05T23:53:15.317Z,99400.84
2022-10-05T23:55:42.121Z,99398.16
2022-10-05T23:58:09.466Z,99397.47
